Time;durP1;ratioP1;P1;durP2;ratioP2;P2;SDS_P1;SDS_P2;PMS_P1;PMS_P2;Temp;Humidity;BMP_temperature;BMP_pressure;BME280_temperature;BME280_humidity;BME280_pressure;Samples;Min_cycle;Max_cycle;Signal;HPM_P1;HPM_P2
2022/09/05 00:02:18;;;;;;;5.73;3.10;;;;;;;;;;4995508;28;46234;-67
2022/09/05 00:05:01;;;;;;;5.27;2.93;;;13.60;53.90;;;;;;4993016;28;46431;-68
2022/09/05 00:07:33;;;;;;;8.03;3.50;;;13.50;54.90;;;;;;4993743;28;46433;-67
2022/09/05 00:10:32;;;;;;;5.03;3.30;;;13.50;54.90;;;;;;4994171;28;46194;-67
2022/09/05 00:12:59;;;;;;;8.43;3.33;;;13.50;53.90;;;;;;4991671;28;46457;-66
2022/09/05 00:15:43;;;;;;;4.03;2.70;;;13.50;54.90;;;;;;4995285;28;46423;-68
2022/09/05 00:18:14;;;;;;;5.50;3.10;;;13.50;55.20;;;;;;4990352;28;45760;-67
2022/09/05 00:21:04;;;;;;;9.53;2.97;;;13.50;54.90;;;;;;4993008;28;46609;-67
2022/09/05 00:23:42;;;;;;;4.87;2.77;;;13.40;54.40;;;;;;4994400;28;46364;-67
2022/09/05 00:26:39;;;;;;;6.33;3.17;;;13.40;55.00;;;;;;4995514;28;46367;-67
2022/09/05 00:29:24;;;;;;;5.50;3.10;;;13.40;55.40;;;;;;4994105;28;46494;-67
2022/09/05 00:31:55;;;;;;;6.70;3.50;;;13.30;55.30;;;;;;4992808;28;46443;-67
2022/09/05 00:34:43;;;;;;;5.20;3.00;;;13.30;54.80;;;;;;4994653;28;46526;-68
2022/09/05 00:37:09;;;;;;;9.83;3.43;;;13.30;57.20;;;;;;4994016;28;46357;-67
2022/09/05 00:39:39;;;;;;;7.10;3.43;;;13.20;56.00;;;;;;4990853;28;45989;-67
2022/09/05 00:42:14;;;;;;;16.43;3.90;;;13.20;56.10;;;;;;4992930;28;47317;-68
2022/09/05 00:44:57;;;;;;;5.23;3.80;;;13.20;55.40;;;;;;4989512;28;46241;-68
2022/09/05 00:47:40;;;;;;;7.27;4.30;;;13.20;56.60;;;;;;4995400;28;46384;-67
2022/09/05 00:50:15;;;;;;;6.60;4.37;;;13.20;56.60;;;;;;4996730;28;46448;-67
2022/09/05 00:52:49;;;;;;;8.40;3.97;;;13.30;55.50;;;;;;4991572;28;46051;-67
2022/09/05 00:55:23;;;;;;;7.60;3.90;;;13.30;56.50;;;;;;4995814;28;46394;-68
2022/09/05 00:58:04;;;;;;;6.03;3.97;;;13.30;56.60;;;;;;4990778;28;46426;-67
2022/09/05 01:00:32;;;;;;;6.03;4.00;;;13.30;56.80;;;;;;4993595;28;46551;-67
2022/09/05 01:03:09;;;;;;;8.53;3.97;;;13.10;56.00;;;;;;4992374;28;46132;-67
2022/09/05 01:06:05;;;;;;;8.80;3.57;;;13.10;57.10;;;;;;4993258;28;46326;-67
2022/09/05 01:08:58;;;;;;;6.97;3.77;;;13.00;57.30;;;;;;4991459;28;46388;-67
2022/09/05 01:11:57;;;;;;;6.40;3.80;;;12.90;57.50;;;;;;4992518;28;46498;-67
2022/09/05 01:14:38;;;;;;;10.20;3.83;;;12.90;56.70;;;;;;4991986;28;47611;-68
2022/09/05 01:17:19;;;;;;;8.73;3.73;;;12.90;57.80;;;;;;4992651;28;46677;-66
2022/09/05 01:19:47;;;;;;;5.27;3.33;;;12.80;57.80;;;;;;4989679;28;46520;-68
2022/09/05 01:22:45;;;;;;;5.43;4.10;;;12.80;57.00;;;;;;4991777;28;46557;-67
2022/09/05 01:25:27;;;;;;;5.83;3.93;;;12.80;58.20;;;;;;4990159;28;47310;-67
2022/09/05 01:28:24;;;;;;;10.70;3.30;;;12.80;58.00;;;;;;4989705;28;46379;-67
2022/09/05 01:30:49;;;;;;;5.60;3.33;;;12.80;58.20;;;;;;4991312;28;46379;-67
2022/09/05 01:33:32;;;;;;;6.47;3.70;;;12.80;57.00;;;;;;4996703;28;46428;-67
2022/09/05 01:36:14;;;;;;;6.60;3.77;;;12.80;57.90;;;;;;4991368;28;46639;-67
2022/09/05 01:39:38;;;;;;;7.43;3.10;;;12.80;59.00;;;;;;4990173;28;46290;-67
2022/09/05 01:42:37;;;;;;;4.67;3.17;;;12.80;56.50;;;;;;4988920;28;45832;-66
2022/09/05 01:45:06;;;;;;;5.10;3.30;;;12.80;57.80;;;;;;4989845;28;46464;-67
2022/09/05 01:47:40;;;;;;;8.37;3.77;;;12.80;57.50;;;;;;4992318;28;46691;-67
2022/09/05 01:50:42;;;;;;;7.27;3.93;;;12.80;57.60;;;;;;4987710;28;46357;-68
2022/09/05 01:53:31;;;;;;;6.23;3.80;;;12.80;56.70;;;;;;4990062;28;46451;-67
2022/09/05 01:56:34;;;;;;;9.60;4.30;;;12.80;57.70;;;;;;4992415;28;45877;-68
2022/09/05 01:59:37;;;;;;;7.73;4.00;;;12.80;57.70;;;;;;4989969;28;47018;-68
2022/09/05 02:02:17;;;;;;;5.20;3.90;;;12.80;57.70;;;;;;4991354;28;46481;-68
2022/09/05 02:04:56;;;;;;;6.03;3.43;;;12.80;56.50;;;;;;4992925;28;45823;-67
2022/09/05 02:07:49;;;;;;;5.60;3.70;;;12.80;57.50;;;;;;4987835;28;46437;-67
2022/09/05 02:10:29;;;;;;;5.97;3.80;;;12.80;57.50;;;;;;4988872;28;46352;-68
2022/09/05 02:13:00;;;;;;;9.00;4.10;;;12.80;56.80;;;;;;4989898;28;46375;-67
2022/09/05 02:15:36;;;;;;;13.60;3.80;;;12.80;59.00;;;;;;4987527;28;46272;-67
2022/09/05 02:18:10;;;;;;;7.50;3.60;;;12.80;57.80;;;;;;4985599;28;46633;-67
2022/09/05 02:20:54;;;;;;;9.60;3.90;;;12.80;58.00;;;;;;4986633;28;46714;-66
2022/09/05 02:23:20;;;;;;;4.93;3.23;;;12.80;57.20;;;;;;4987839;28;45742;-68
2022/09/05 02:25:55;;;;;;;6.30;3.70;;;12.80;58.30;;;;;;4988437;28;46242;-68
2022/09/05 02:28:31;;;;;;;4.70;3.37;;;12.80;58.30;;;;;;4988431;28;46530;-68
2022/09/05 02:31:10;;;;;;;4.70;3.30;;;12.80;58.40;;;;;;4989968;28;46383;-68
2022/09/05 02:34:05;;;;;;;6.87;3.23;;;12.80;57.60;;;;;;4987193;28;46437;-67
2022/09/05 02:36:37;;;;;;;4.47;2.80;;;12.80;58.60;;;;;;4987422;28;46459;-67
2022/09/05 02:39:30;;;;;;;5.53;3.00;;;12.70;58.50;;;;;;4997392;28;46443;-67
2022/09/05 02:42:08;;;;;;;6.40;2.60;;;12.80;58.70;;;;;;4992467;28;46399;-67
2022/09/05 02:44:40;;;;;;;7.80;2.90;;;12.60;57.80;;;;;;4989031;28;46454;-67
2022/09/05 02:47:23;;;;;;;6.00;3.00;;;12.60;58.80;;;;;;4988757;28;46315;-67
2022/09/05 02:50:05;;;;;;;11.37;4.10;;;12.60;58.90;;;;;;4990126;28;46548;-67
2022/09/05 02:52:34;;;;;;;4.93;3.33;;;12.60;57.90;;;;;;4987007;28;46339;-67
2022/09/05 02:55:04;;;;;;;8.60;3.00;;;12.60;58.90;;;;;;4991955;28;46436;-67
2022/09/05 02:58:21;;;;;;;7.03;3.03;;;12.60;58.90;;;;;;4994875;28;46843;-67
2022/09/05 03:01:00;;;;;;;5.63;3.13;;;12.60;59.10;;;;;;4988514;28;46398;-68
2022/09/05 03:03:38;;;;;;;5.67;3.23;;;12.50;58.00;;;;;;4992612;28;46426;-68
2022/09/05 03:06:16;;;;;;;7.20;2.90;;;12.50;60.10;;;;;;4989944;28;46553;-67
2022/09/05 03:08:50;;;;;;;4.20;2.90;;;12.50;59.10;;;;;;4987850;28;45809;-68
2022/09/05 03:11:49;;;;;;;4.90;2.90;;;12.40;59.00;;;;;;4991535;28;46466;-67
2022/09/05 03:14:48;;;;;;;4.10;2.80;;;12.40;58.10;;;;;;4991723;28;46994;-68
2022/09/05 03:17:35;;;;;;;5.17;3.00;;;12.40;59.10;;;;;;4992610;28;46434;-66
2022/09/05 03:20:39;;;;;;;9.37;3.33;;;12.40;59.00;;;;;;4991953;28;46328;-67
2022/09/05 03:23:26;;;;;;;6.43;2.93;;;12.40;58.00;;;;;;4993595;28;46519;-67
2022/09/05 03:26:30;;;;;;;4.90;3.00;;;12.40;59.20;;;;;;4990776;28;46382;-68
2022/09/05 03:29:16;;;;;;;9.07;3.60;;;12.30;59.10;;;;;;4989282;28;46422;-67
2022/09/05 03:32:03;;;;;;;7.37;3.43;;;12.40;58.90;;;;;;4995063;28;46387;-67
2022/09/05 03:34:40;;;;;;;5.17;3.00;;;12.40;57.70;;;;;;4996700;28;46097;-67
2022/09/05 03:37:11;;;;;;;6.30;2.70;;;12.40;58.70;;;;;;4995402;28;46981;-67
2022/09/05 03:40:02;;;;;;;16.23;2.90;;;12.40;58.80;;;;;;4991217;28;46378;-67
2022/09/05 03:42:37;;;;;;;6.33;2.90;;;12.20;58.20;;;;;;4993965;28;46653;-67
2022/09/05 03:45:25;;;;;;;5.00;3.00;;;12.20;59.00;;;;;;4992668;28;46690;-67
2022/09/05 03:47:56;;;;;;;6.93;3.60;;;12.10;59.20;;;;;;4992755;28;46658;-67
2022/09/05 03:50:50;;;;;;;11.23;3.57;;;12.10;59.30;;;;;;4992570;28;46426;-67
2022/09/05 03:53:36;;;;;;;6.27;3.47;;;12.10;58.50;;;;;;4995914;28;46498;-67
2022/09/05 03:56:22;;;;;;;5.70;3.70;;;12.10;59.50;;;;;;4991472;28;46452;-67
2022/09/05 03:59:07;;;;;;;6.40;3.40;;;12.10;58.40;;;;;;4991260;28;46483;-67
2022/09/05 04:01:40;;;;;;;8.30;3.70;;;12.10;59.40;;;;;;4996848;28;46511;-68
2022/09/05 04:04:42;;;;;;;7.13;3.60;;;12.10;58.30;;;;;;4989564;28;46435;-68
2022/09/05 04:07:31;;;;;;;7.07;3.67;;;12.10;59.50;;;;;;4994879;28;46646;-68
2022/09/05 04:10:06;;;;;;;5.63;3.50;;;12.10;59.50;;;;;;4994286;28;46434;-68
2022/09/05 04:12:46;;;;;;;7.60;3.50;;;12.10;58.70;;;;;;4994613;28;45784;-68
2022/09/05 04:15:25;;;;;;;6.50;3.53;;;12.00;59.40;;;;;;4991953;28;46354;-68
2022/09/05 04:18:00;;;;;;;10.40;3.27;;;12.00;59.40;;;;;;4992491;28;46486;-68
2022/09/05 04:20:40;;;;;;;7.50;3.83;;;12.00;59.60;;;;;;4996511;28;47040;-68
2022/09/05 04:23:17;;;;;;;5.83;4.00;;;12.00;58.70;;;;;;4992436;28;46481;-68
2022/09/05 04:26:25;;;;;;;5.60;3.50;;;12.00;59.70;;;;;;4995497;28;46386;-68
2022/09/05 04:29:13;;;;;;;4.07;3.20;;;12.00;59.80;;;;;;4988624;28;46287;-68
2022/09/05 04:32:21;;;;;;;5.10;3.50;;;12.00;59.90;;;;;;4992721;28;46975;-68
2022/09/05 04:35:16;;;;;;;4.17;3.20;;;12.00;58.80;;;;;;4992974;28;46383;-67
2022/09/05 04:38:14;;;;;;;5.50;3.80;;;12.00;59.60;;;;;;4993649;28;46361;-67
2022/09/05 04:40:45;;;;;;;10.03;3.50;;;12.00;59.60;;;;;;4991573;28;46432;-68
2022/09/05 04:43:28;;;;;;;6.50;3.67;;;12.10;58.70;;;;;;4993269;28;46460;-67
2022/09/05 04:46:10;;;;;;;6.87;3.70;;;12.10;59.80;;;;;;4994977;28;46455;-67
2022/09/05 04:48:54;;;;;;;6.17;4.30;;;12.10;59.70;;;;;;4992598;28;46348;-67
2022/09/05 04:51:50;;;;;;;11.13;4.07;;;12.10;59.80;;;;;;4995634;28;46369;-67
2022/09/05 04:54:25;;;;;;;4.93;3.33;;;12.10;58.80;;;;;;4992940;28;46399;-67
2022/09/05 04:56:59;;;;;;;7.20;3.50;;;12.10;59.80;;;;;;4988600;28;46268;-68
2022/09/05 04:59:36;;;;;;;4.83;3.27;;;12.10;58.90;;;;;;4994457;23;46913;-68
2022/09/05 05:02:18;;;;;;;6.10;3.17;;;12.10;59.90;;;;;;4984372;28;46472;-69
2022/09/05 05:04:44;;;;;;;6.90;3.17;;;12.10;58.80;;;;;;4965220;28;46368;-69
2022/09/05 05:07:25;;;;;;;9.73;4.60;;;12.20;59.90;;;;;;4964681;28;46766;-66
2022/09/05 05:09:55;;;;;;;9.10;3.80;;;12.20;59.80;;;;;;4965251;28;46514;-66
2022/09/05 05:12:48;;;;;;;11.50;3.70;;;12.40;58.70;;;;;;4964728;28;46438;-68
2022/09/05 05:15:17;;;;;;;4.60;3.23;;;12.50;59.70;;;;;;4963778;28;46436;-67
2022/09/05 05:17:54;;;;;;;7.67;3.83;;;12.60;59.30;;;;;;4963010;28;45848;-68
2022/09/05 05:20:28;;;;;;;6.97;3.73;;;12.80;58.90;;;;;;4965073;28;46388;-67
2022/09/05 05:23:04;;;;;;;6.43;3.53;;;13.10;57.40;;;;;;4965242;28;46440;-67
2022/09/05 05:25:39;;;;;;;7.20;3.60;;;13.20;58.30;;;;;;4963980;28;46452;-68
2022/09/05 05:28:19;;;;;;;5.00;2.97;;;13.70;57.50;;;;;;4963713;28;46446;-68
2022/09/05 05:30:45;;;;;;;6.17;3.00;;;14.50;58.00;;;;;;4965465;28;46332;-68
2022/09/05 05:33:23;;;;;;;6.00;2.87;;;15.80;56.40;;;;;;4965290;28;46012;-66
2022/09/05 05:35:50;;;;;;;4.23;2.60;;;16.10;57.30;;;;;;4965048;28;47452;-68
2022/09/05 05:38:16;;;;;;;13.57;3.13;;;16.70;57.30;;;;;;4962202;28;46696;-68
2022/09/05 05:41:17;;;;;;;3.50;2.70;;;17.30;56.50;;;;;;4963748;28;45948;-70
2022/09/05 05:43:44;;;;;;;5.00;3.20;;;18.10;54.00;;;;;;4947714;28;45897;-68
2022/09/05 05:46:14;;;;;;;5.43;3.70;;;18.40;54.60;;;;;;4964540;28;46428;-68
2022/09/05 05:48:43;;;;;;;4.60;3.07;;;18.80;53.40;;;;;;4963401;28;46467;-67
2022/09/05 05:51:26;;;;;;;5.80;3.50;;;19.00;52.40;;;;;;4963714;28;45803;-67
2022/09/05 05:53:57;;;;;;;6.93;3.00;;;19.20;49.70;;;;;;4965750;28;46501;-67
2022/09/05 05:56:45;;;;;;;5.23;2.67;;;19.40;50.50;;;;;;4963077;28;46360;-67
2022/09/05 05:59:40;;;;;;;7.50;3.07;;;19.50;49.40;;;;;;4961880;28;46525;-67
2022/09/05 06:02:39;;;;;;;4.60;2.47;;;19.30;46.30;;;;;;4969153;28;46542;-67
2022/09/05 06:05:19;;;;;;;5.03;2.97;;;19.30;47.10;;;;;;4964386;28;46549;-67
2022/09/05 06:08:03;;;;;;;5.50;2.80;;;19.20;47.00;;;;;;4963389;28;47352;-68
2022/09/05 06:10:29;;;;;;;6.10;2.90;;;19.10;46.50;;;;;;4961795;28;46464;-66
2022/09/05 06:13:10;;;;;;;4.80;3.37;;;19.00;45.20;;;;;;4964876;28;46375;-67
2022/09/05 06:15:38;;;;;;;5.43;2.83;;;19.00;46.10;;;;;;4963378;28;46502;-67
2022/09/05 06:18:23;;;;;;;6.87;2.93;;;19.00;46.10;;;;;;4963106;28;46966;-65
2022/09/05 06:21:16;;;;;;;5.47;2.80;;;19.10;46.60;;;;;;4967696;28;46419;-66
2022/09/05 06:23:57;;;;;;;4.90;2.87;;;19.40;43.60;;;;;;4966430;28;46392;-68
2022/09/05 06:26:44;;;;;;;8.43;3.43;;;19.50;45.90;;;;;;4965659;28;46470;-67
2022/09/05 06:29:47;;;;;;;5.77;3.80;;;19.40;44.60;;;;;;4964780;28;46411;-67
2022/09/05 06:32:30;;;;;;;5.43;3.70;;;19.30;44.10;;;;;;4965745;28;46497;-67
2022/09/05 06:35:25;;;;;;;8.73;3.50;;;19.30;45.30;;;;;;4967045;28;46781;-67
2022/09/05 06:38:38;;;;;;;11.50;3.90;;;19.30;45.30;;;;;;4970039;28;46408;-68
2022/09/05 06:41:18;;;;;;;7.00;3.30;;;19.30;45.70;;;;;;4971104;28;46467;-67
2022/09/05 06:44:02;;;;;;;11.77;4.00;;;19.50;44.50;;;;;;4965501;28;46357;-68
2022/09/05 06:46:35;;;;;;;6.27;3.47;;;19.50;45.50;;;;;;4967381;28;46515;-68
2022/09/05 06:49:07;;;;;;;5.03;3.60;;;19.60;45.50;;;;;;4965884;28;46310;-68
2022/09/05 06:51:53;;;;;;;8.63;3.43;;;19.60;45.50;;;;;;4967441;28;46669;-67
2022/09/05 06:54:55;;;;;;;4.90;3.47;;;19.60;44.40;;;;;;4965802;28;46411;-67
2022/09/05 06:57:52;;;;;;;7.80;3.77;;;19.60;45.60;;;;;;4962254;28;46424;-68
2022/09/05 07:00:31;;;;;;;9.33;3.80;;;19.80;45.40;;;;;;4962042;28;46381;-68
2022/09/05 07:03:19;;;;;;;6.00;4.10;;;19.80;44.30;;;;;;4969211;28;46222;-67
2022/09/05 07:06:07;;;;;;;6.83;3.87;;;19.80;45.30;;;;;;4966178;28;46507;-67
2022/09/05 07:09:11;;;;;;;9.30;3.90;;;19.90;45.40;;;;;;4967186;28;46360;-67
2022/09/05 07:12:11;;;;;;;7.27;4.30;;;20.00;45.60;;;;;;4963636;28;46853;-69
2022/09/05 07:15:15;;;;;;;6.00;3.57;;;20.00;44.80;;;;;;4961831;28;46718;-68
2022/09/05 07:17:50;;;;;;;7.43;4.07;;;20.20;45.50;;;;;;4967804;28;46491;-67
2022/09/05 07:20:25;;;;;;;8.37;3.77;;;20.40;45.00;;;;;;4967712;28;46356;-68
2022/09/05 07:23:19;;;;;;;6.40;3.23;;;20.60;43.80;;;;;;4965952;28;46562;-67
2022/09/05 07:25:48;;;;;;;8.53;3.93;;;20.60;44.70;;;;;;4966361;28;46519;-67
2022/09/05 07:28:15;;;;;;;7.63;4.37;;;20.90;44.30;;;;;;4963333;28;46340;-67
2022/09/05 07:30:48;;;;;;;7.83;3.53;;;21.10;43.90;;;;;;4968585;28;46090;-67
2022/09/05 07:33:25;;;;;;;8.77;3.20;;;21.40;42.30;;;;;;4965031;28;46451;-68
2022/09/05 07:35:52;;;;;;;7.13;3.10;;;21.50;43.10;;;;;;4969047;28;46470;-68
2022/09/05 07:38:26;;;;;;;5.57;3.43;;;21.60;42.50;;;;;;4967292;28;46376;-67
2022/09/05 07:40:58;;;;;;;7.27;3.87;;;21.70;42.10;;;;;;4964088;28;46412;-66
2022/09/05 07:43:29;;;;;;;6.60;3.03;;;21.60;41.40;;;;;;4961840;28;46562;-68
2022/09/05 07:46:10;;;;;;;6.00;3.10;;;21.50;42.70;;;;;;4971169;28;46364;-68
2022/09/05 07:48:54;;;;;;;5.47;3.47;;;21.40;42.80;;;;;;4966008;28;46407;-67
2022/09/05 07:51:26;;;;;;;6.50;3.00;;;21.30;43.20;;;;;;4969184;28;46447;-69
2022/09/05 07:53:57;;;;;;;4.77;3.30;;;21.30;42.10;;;;;;4963620;28;46443;-68
2022/09/05 07:56:44;;;;;;;7.83;3.80;;;21.40;43.20;;;;;;4966565;28;46412;-68
2022/09/05 07:59:12;;;;;;;6.97;2.73;;;21.60;42.80;;;;;;4967904;28;45797;-68
2022/09/05 08:01:43;;;;;;;6.00;3.40;;;21.80;42.60;;;;;;4966254;28;46430;-68
2022/09/05 08:04:21;;;;;;;6.50;3.80;;;21.80;41.00;;;;;;4967095;28;45830;-68
2022/09/05 08:06:51;;;;;;;8.47;3.60;;;21.70;42.30;;;;;;4963923;28;47291;-68
2022/09/05 08:09:22;;;;;;;5.20;3.13;;;21.70;42.50;;;;;;4965243;28;46387;-67
2022/09/05 08:11:50;;;;;;;6.50;3.30;;;21.80;42.50;;;;;;4959709;28;46600;-68
2022/09/05 08:14:48;;;;;;;6.23;3.17;;;22.00;41.10;;;;;;4967541;28;46604;-67
2022/09/05 08:17:19;;;;;;;9.57;3.30;;;22.00;42.00;;;;;;4969819;28;46516;-67
2022/09/05 08:19:45;;;;;;;6.50;3.23;;;22.20;41.40;;;;;;4970390;28;46428;-68
2022/09/05 08:22:23;;;;;;;6.67;3.37;;;22.30;41.10;;;;;;4967207;28;46305;-67
2022/09/05 08:25:14;;;;;;;5.23;2.73;;;22.40;39.80;;;;;;4970185;28;46418;-68
2022/09/05 08:27:57;;;;;;;5.63;3.17;;;22.40;40.70;;;;;;4962864;28;45949;-68
2022/09/05 08:30:24;;;;;;;7.60;3.03;;;22.50;40.10;;;;;;4971248;28;46483;-67
2022/09/05 08:33:04;;;;;;;5.20;3.20;;;22.90;38.50;;;;;;4958937;28;46642;-67
2022/09/05 08:35:51;;;;;;;7.70;3.07;;;23.00;39.30;;;;;;4962538;28;46546;-67
2022/09/05 08:38:17;;;;;;;5.70;3.10;;;23.10;38.40;;;;;;4963301;28;46764;-68
2022/09/05 08:41:04;;;;;;;4.80;3.30;;;23.10;38.30;;;;;;4973900;28;46486;-66
2022/09/05 08:43:59;;;;;;;4.50;2.97;;;23.20;37.60;;;;;;4962961;28;46472;-68
2022/09/05 08:47:09;;;;;;;5.33;3.17;;;23.20;38.40;;;;;;4964348;28;46936;-68
2022/09/05 08:49:38;;;;;;;5.10;2.50;;;23.10;38.20;;;;;;4963010;28;46594;-67
2022/09/05 08:52:07;;;;;;;4.27;2.50;;;23.00;38.80;;;;;;4964121;28;46485;-66
2022/09/05 08:54:44;;;;;;;3.93;2.87;;;23.10;37.80;;;;;;4966327;28;46359;-66
2022/09/05 08:57:13;;;;;;;4.67;3.03;;;23.30;38.30;;;;;;4963897;28;46309;-66
2022/09/05 09:00:05;;;;;;;7.33;2.77;;;23.50;37.30;;;;;;4962211;28;46516;-67
2022/09/05 09:02:48;;;;;;;5.90;2.80;;;23.70;36.50;;;;;;4966323;28;46581;-66
2022/09/05 09:05:54;;;;;;;6.10;3.00;;;23.70;36.80;;;;;;4967764;28;46490;-66
2022/09/05 09:08:48;;;;;;;5.07;2.80;;;23.80;36.20;;;;;;4966317;28;46425;-66
2022/09/05 09:11:39;;;;;;;7.20;2.87;;;23.90;36.40;;;;;;4963259;28;46335;-66
2022/09/05 09:14:26;;;;;;;5.03;2.80;;;24.10;34.30;;;;;;4962991;28;46423;-66
2022/09/05 09:17:16;;;;;;;3.40;2.60;;;24.20;35.00;;;;;;4962409;28;46506;-67
2022/09/05 09:19:53;;;;;;;4.00;2.67;;;24.30;35.00;;;;;;4965636;28;46643;-66
2022/09/05 09:22:46;;;;;;;4.03;2.47;;;24.30;32.80;;;;;;4963817;28;47025;-66
2022/09/05 09:25:21;;;;;;;3.70;2.40;;;24.30;33.70;;;;;;4965309;28;46367;-66
2022/09/05 09:28:00;;;;;;;5.53;3.10;;;24.20;33.80;;;;;;4960553;28;46537;-67
2022/09/05 09:30:29;;;;;;;3.77;2.10;;;24.10;34.00;;;;;;4961370;28;46348;-67
2022/09/05 09:33:00;;;;;;;4.57;2.83;;;24.30;32.70;;;;;;4961573;28;46403;-67
2022/09/05 09:35:41;;;;;;;4.27;2.17;;;24.30;33.50;;;;;;4964734;28;45947;-66
2022/09/05 09:38:27;;;;;;;5.97;2.40;;;24.30;32.80;;;;;;4977768;28;46705;-66
2022/09/05 09:41:22;;;;;;;4.43;2.50;;;24.40;32.60;;;;;;4966519;28;46440;-65
2022/09/05 09:43:57;;;;;;;3.90;2.80;;;24.60;31.30;;;;;;4962261;28;48322;-67
2022/09/05 09:46:42;;;;;;;6.13;2.30;;;24.70;32.30;;;;;;4963714;28;46498;-66
2022/09/05 09:49:30;;;;;;;5.10;2.63;;;24.80;31.10;;;;;;4964127;28;46387;-67
2022/09/05 09:52:36;;;;;;;3.90;2.27;;;24.80;31.10;;;;;;4965405;28;46435;-68
2022/09/05 09:55:23;;;;;;;4.17;2.87;;;24.80;29.90;;;;;;4964297;28;46467;-66
2022/09/05 09:58:10;;;;;;;5.10;2.60;;;24.90;30.70;;;;;;4963548;28;46583;-66
2022/09/05 10:00:54;;;;;;;3.80;2.50;;;24.90;30.60;;;;;;4965747;28;45861;-68
2022/09/05 10:03:47;;;;;;;10.00;2.50;;;25.00;29.90;;;;;;4965521;28;46348;-68
2022/09/05 10:06:13;;;;;;;4.40;2.27;;;25.00;30.20;;;;;;4963157;28;46428;-69
2022/09/05 10:08:59;;;;;;;3.90;2.33;;;25.20;29.70;;;;;;4962605;28;46361;-67
2022/09/05 10:11:59;;;;;;;4.90;2.30;;;25.20;29.30;;;;;;4964199;28;46457;-67
2022/09/05 10:14:36;;;;;;;4.10;2.40;;;25.30;28.20;;;;;;4962890;28;46494;-68
2022/09/05 10:17:27;;;;;;;5.60;3.47;;;25.20;28.90;;;;;;4961802;28;45993;-68
2022/09/05 10:20:28;;;;;;;5.77;2.70;;;25.20;29.10;;;;;;4965235;28;46388;-67
2022/09/05 10:23:12;;;;;;;4.00;2.30;;;25.40;28.40;;;;;;4964564;28;46423;-67
2022/09/05 10:26:02;;;;;;;3.87;2.30;;;25.40;28.90;;;;;;4965682;28;46379;-68
2022/09/05 10:28:43;;;;;;;6.50;2.60;;;25.40;28.70;;;;;;4961780;28;47339;-67
2022/09/05 10:31:21;;;;;;;4.50;2.10;;;25.30;28.70;;;;;;4962331;28;46443;-67
2022/09/05 10:34:01;;;;;;;4.60;2.37;;;25.30;27.60;;;;;;4960448;28;46482;-66
2022/09/05 10:36:30;;;;;;;5.40;2.97;;;25.30;28.30;;;;;;4962212;28;46405;-66
2022/09/05 10:39:36;;;;;;;3.33;2.23;;;25.40;28.20;;;;;;4962048;28;47957;-66
2022/09/05 10:42:27;;;;;;;5.43;2.37;;;25.50;26.60;;;;;;4962466;28;46768;-66
2022/09/05 10:44:55;;;;;;;4.27;2.60;;;25.50;27.50;;;;;;4962684;28;46447;-66
2022/09/05 10:47:47;;;;;;;5.20;2.60;;;25.60;27.50;;;;;;4962305;28;46650;-65
2022/09/05 10:50:32;;;;;;;3.93;2.50;;;25.60;27.00;;;;;;4962260;28;47099;-65
2022/09/05 10:53:22;;;;;;;4.30;2.30;;;25.80;26.10;;;;;;4961903;28;46472;-68
2022/09/05 10:56:05;;;;;;;3.57;2.47;;;25.80;26.90;;;;;;4963102;28;46580;-66
2022/09/05 10:59:00;;;;;;;3.30;2.30;;;25.90;27.40;;;;;;4967977;28;46653;-67
2022/09/05 11:01:40;;;;;;;5.20;2.70;;;26.10;27.00;;;;;;4968972;28;46887;-67
2022/09/05 11:04:33;;;;;;;7.07;2.07;;;26.20;25.70;;;;;;4963062;28;46388;-66
2022/09/05 11:07:08;;;;;;;5.20;2.90;;;26.20;26.60;;;;;;4961633;28;46363;-68
2022/09/05 11:10:07;;;;;;;3.57;2.27;;;26.40;25.90;;;;;;4963926;28;46404;-66
2022/09/05 11:12:38;;;;;;;3.60;2.30;;;26.60;25.10;;;;;;4961798;28;47097;-65
2022/09/05 11:15:21;;;;;;;4.10;2.30;;;26.60;25.10;;;;;;4961631;28;46718;-65
2022/09/05 11:17:52;;;;;;;5.37;2.03;;;26.50;24.70;;;;;;4964954;28;45973;-67
2022/09/05 11:20:32;;;;;;;4.70;2.30;;;26.60;24.50;;;;;;4961578;28;46597;-68
2022/09/05 11:23:21;;;;;;;4.40;2.40;;;26.50;23.30;;;;;;4962778;28;46359;-68
2022/09/05 11:25:54;;;;;;;3.03;2.17;;;26.50;23.30;;;;;;4963243;28;45904;-67
2022/09/05 11:28:50;;;;;;;3.83;2.27;;;26.40;23.10;;;;;;4960845;28;46431;-68
2022/09/05 11:31:21;;;;;;;6.37;2.03;;;26.30;23.20;;;;;;4961098;28;46340;-68
2022/09/05 11:33:52;;;;;;;3.90;2.53;;;26.40;22.70;;;;;;4962837;28;46396;-67
2022/09/05 11:36:44;;;;;;;4.60;2.30;;;26.40;23.20;;;;;;4970074;28;45782;-67
2022/09/05 11:39:29;;;;;;;8.70;2.17;;;26.50;23.00;;;;;;4964251;28;46484;-68
2022/09/05 11:42:08;;;;;;;8.83;2.53;;;26.50;22.90;;;;;;4963894;28;46458;-67
2022/09/05 11:44:53;;;;;;;6.00;2.40;;;26.60;21.90;;;;;;4959860;28;47070;-68
2022/09/05 11:47:33;;;;;;;8.40;2.50;;;26.60;22.70;;;;;;4961399;28;46676;-69
2022/09/05 11:50:35;;;;;;;9.27;2.70;;;26.70;22.80;;;;;;4963396;28;46425;-68
2022/09/05 11:53:42;;;;;;;3.03;2.10;;;26.60;21.60;;;;;;4965175;28;46433;-68
2022/09/05 11:56:39;;;;;;;6.80;2.43;;;26.60;22.00;;;;;;4971048;28;46443;-68
2022/09/05 11:59:36;;;;;;;6.97;2.17;;;26.60;22.00;;;;;;4965801;28;46575;-69
2022/09/05 12:02:02;;;;;;;5.50;2.10;;;26.60;21.90;;;;;;4965763;28;46504;-67
2022/09/05 12:04:44;;;;;;;4.70;2.27;;;26.60;21.00;;;;;;4963111;28;46452;-68
2022/09/05 12:07:44;;;;;;;3.23;1.80;;;26.60;21.80;;;;;;4963504;28;46391;-67
2022/09/05 12:10:23;;;;;;;3.60;2.40;;;26.70;21.70;;;;;;4965144;28;46869;-67
2022/09/05 12:13:15;;;;;;;3.97;2.13;;;26.70;20.70;;;;;;4965469;28;46502;-67
2022/09/05 12:15:45;;;;;;;5.70;2.43;;;26.70;21.30;;;;;;4964874;28;46980;-67
2022/09/05 12:18:27;;;;;;;5.60;2.00;;;26.70;21.10;;;;;;4961912;28;46621;-66
2022/09/05 12:20:57;;;;;;;3.37;2.20;;;26.70;20.10;;;;;;4964331;28;46418;-66
2022/09/05 12:23:41;;;;;;;3.77;2.50;;;26.70;20.50;;;;;;4965947;28;46470;-66
2022/09/05 12:26:18;;;;;;;4.03;1.93;;;26.70;21.10;;;;;;4965864;28;46587;-68
2022/09/05 12:29:14;;;;;;;3.60;2.30;;;26.70;20.20;;;;;;4965196;28;47322;-67
2022/09/05 12:31:45;;;;;;;3.67;2.10;;;26.60;19.70;;;;;;4963430;28;46341;-67
2022/09/05 12:34:17;;;;;;;3.67;2.10;;;26.60;18.80;;;;;;4964093;28;46415;-67
2022/09/05 12:36:48;;;;;;;2.90;1.90;;;26.60;20.10;;;;;;4962414;28;46443;-66
2022/09/05 12:39:26;;;;;;;4.53;2.63;;;26.70;20.10;;;;;;4964118;28;46349;-67
2022/09/05 12:42:01;;;;;;;3.17;2.07;;;26.60;19.30;;;;;;4965466;28;46472;-66
2022/09/05 12:45:07;;;;;;;6.20;2.67;;;26.60;18.60;;;;;;4963097;28;46656;-67
2022/09/05 12:47:49;;;;;;;4.40;1.97;;;26.60;19.00;;;;;;4963226;28;46418;-66
2022/09/05 12:50:16;;;;;;;4.60;1.87;;;26.60;19.20;;;;;;4965790;28;46340;-66
2022/09/05 12:52:51;;;;;;;7.33;2.40;;;26.60;19.20;;;;;;4963424;28;46487;-64
2022/09/05 12:55:16;;;;;;;6.60;2.80;;;26.60;18.70;;;;;;4964018;28;46731;-66
2022/09/05 12:57:43;;;;;;;5.30;2.35;;;26.60;18.50;;;;;;4915566;28;1363638;-67
2022/09/05 13:00:15;;;;;;;3.50;2.20;;;26.70;19.00;;;;;;4966673;28;46149;-67
2022/09/05 13:02:45;;;;;;;3.20;2.03;;;27.00;18.30;;;;;;4964473;28;46328;-66
2022/09/05 13:05:24;;;;;;;6.40;2.40;;;27.00;19.10;;;;;;4964404;28;46701;-68
2022/09/05 13:07:58;;;;;;;5.33;2.03;;;26.90;18.70;;;;;;4961995;28;46458;-66
2022/09/05 13:10:36;;;;;;;4.27;2.30;;;26.80;18.70;;;;;;4962891;28;46470;-67
2022/09/05 13:13:22;;;;;;;3.07;2.23;;;26.80;18.50;;;;;;4965479;28;46564;-67
2022/09/05 13:15:52;;;;;;;3.87;2.10;;;26.90;18.50;;;;;;4964283;28;46812;-67
2022/09/05 13:18:22;;;;;;;4.27;1.93;;;27.20;18.40;;;;;;4964251;28;46713;-68
2022/09/05 13:21:04;;;;;;;2.87;1.80;;;27.40;18.10;;;;;;4966195;28;46460;-67
2022/09/05 13:23:47;;;;;;;4.43;2.07;;;27.70;16.80;;;;;;4964063;28;46454;-68
2022/09/05 13:26:36;;;;;;;7.63;2.47;;;27.70;17.50;;;;;;4963274;28;46368;-68
2022/09/05 13:29:11;;;;;;;6.57;1.97;;;27.60;17.00;;;;;;4963001;28;46534;-66
2022/09/05 13:31:40;;;;;;;4.03;1.90;;;27.50;16.20;;;;;;4962541;28;47296;-69
2022/09/05 13:35:03;;;;;;;5.50;2.23;;;27.40;15.30;;;;;;4965629;28;46666;-67
2022/09/05 13:37:35;;;;;;;3.83;2.30;;;27.50;16.50;;;;;;4944705;28;46612;-69
2022/09/05 13:40:23;;;;;;;6.07;2.20;;;27.50;16.70;;;;;;4961723;28;46647;-67
2022/09/05 13:43:11;;;;;;;4.40;1.80;;;27.60;16.70;;;;;;4963551;28;47134;-67
2022/09/05 13:46:09;;;;;;;5.40;1.97;;;27.60;16.70;;;;;;4961037;28;46552;-67
2022/09/05 13:48:48;;;;;;;2.60;1.70;;;27.50;16.20;;;;;;4958776;28;46463;-66
2022/09/05 13:51:35;;;;;;;12.67;2.30;;;27.60;16.30;;;;;;4964435;28;46531;-67
2022/09/05 13:54:23;;;;;;;7.30;2.37;;;27.80;15.50;;;;;;4960497;28;46527;-65
2022/09/05 13:57:26;;;;;;;4.73;2.20;;;28.00;15.80;;;;;;4965338;28;46384;-67
2022/09/05 14:00:16;;;;;;;2.90;1.80;;;28.20;15.10;;;;;;4961872;28;46304;-66
2022/09/05 14:03:19;;;;;;;3.77;2.23;;;28.60;13.50;;;;;;4962316;28;46459;-67
2022/09/05 14:06:08;;;;;;;5.17;2.00;;;28.70;14.10;;;;;;4961746;28;46695;-67